Kezdőlap
METAR-TAF:

METAR-TAF

Repülőterek :

Nouakchott, Mauritánia

földrajzi szélesség: 18-18-36N, földrajzi hosszúság: 015-58-11W, magasság: 3 m

Jelenlegi meteorológiai megfigyelések

A jelentés 18 perccel ezelõtt készült, 17:30 UTC
Észak-északnyugati szél 14 kt
Hőmérséklet 28°C
Páratartalom 70%
Légköri nyomás 1011 hPa
Látótávolság: 8000 m

METAR: GQNO 171730Z 34014KT 8000 NSC 28/22 Q1011 NOSIG

Idő: 17:48 (17:48 UTC)

Előrejelzés

A jelentés 6 órával és 48 perccel ezelõtt készült, 11:00 UTC
Az előrejelzés 17-én 12 óra UTC és 18-én 18 óra UTC között érvényes
Észak-északnyugati szél 12 kt
Látótávolság: 7000 m

TAF: GQNO 171100Z 1712/1818 34012KT 7000 NSC

Meteorológiai megfigyelések és előrejelzések több, mint 4000 repülőtéren (METAR és TAF jelentéseket).

A térképen piros és sárga pontok jelzik az elérhető meteorológiai állomásokat.

Mozgassa az egeret a pont fölött, hogy megjelenjen az állomás neve.

Azután kattintson az időjárási megfigyelések és előrejelzések megtekintéséhez.

A térkép megváltoztatása: kattintson a fekete keresztel jelölt zöld gombra ráközelítéshez, a vonallal jelölt zöld gombra távolításhoz, vagy a zöld nyilakra a szomszédos térképek eléréséhez.


METAR-TAF: